sensor_id;sensor_type;location;lat;lon;timestamp;P1;durP1;ratioP1;P2;durP2;ratioP2
32451;SDS011;45528;52.102;5.242;2023-03-15T00:00:16;3.3;;;1.3;;
32451;SDS011;45528;52.102;5.242;2023-03-15T00:01:53;3.0;;;1.11;;
32451;SDS011;45528;52.102;5.242;2023-03-15T00:05:05;2.9;;;1.3;;
32451;SDS011;45528;52.102;5.242;2023-03-15T00:06:42;1.9;;;1.3;;
32451;SDS011;45528;52.102;5.242;2023-03-15T00:08:18;4.0;;;1.3;;
32451;SDS011;45528;52.102;5.242;2023-03-15T00:09:56;2.8;;;1.2;;
32451;SDS011;45528;52.102;5.242;2023-03-15T00:13:09;3.7;;;1.3;;
32451;SDS011;45528;52.102;5.242;2023-03-15T00:14:47;4.1;;;1.4;;
32451;SDS011;45528;52.102;5.242;2023-03-15T00:16:23;6.4;;;1.4;;
32451;SDS011;45528;52.102;5.242;2023-03-15T00:19:36;4.2;;;1.5;;
32451;SDS011;45528;52.102;5.242;2023-03-15T00:21:12;4.1;;;1.8;;
32451;SDS011;45528;52.102;5.242;2023-03-15T00:22:50;4.61;;;1.9;;
32451;SDS011;45528;52.102;5.242;2023-03-15T00:24:26;3.4;;;1.7;;
32451;SDS011;45528;52.102;5.242;2023-03-15T00:27:39;4.0;;;1.8;;
32451;SDS011;45528;52.102;5.242;2023-03-15T00:29:15;3.3;;;1.5;;
32451;SDS011;45528;52.102;5.242;2023-03-15T00:31:01;2.8;;;1.4;;
32451;SDS011;45528;52.102;5.242;2023-03-15T00:34:14;5.3;;;1.6;;
32451;SDS011;45528;52.102;5.242;2023-03-15T00:35:51;5.2;;;1.5;;
32451;SDS011;45528;52.102;5.242;2023-03-15T00:37:27;3.0;;;1.5;;
32451;SDS011;45528;52.102;5.242;2023-03-15T00:39:04;4.8;;;1.6;;
32451;SDS011;45528;52.102;5.242;2023-03-15T00:42:16;2.7;;;1.6;;
32451;SDS011;45528;52.102;5.242;2023-03-15T00:43:52;3.3;;;1.5;;
32451;SDS011;45528;52.102;5.242;2023-03-15T00:45:28;3.0;;;1.4;;
32451;SDS011;45528;52.102;5.242;2023-03-15T00:48:40;5.0;;;1.7;;
32451;SDS011;45528;52.102;5.242;2023-03-15T00:50:17;4.8;;;1.8;;
32451;SDS011;45528;52.102;5.242;2023-03-15T00:51:54;5.7;;;1.9;;
32451;SDS011;45528;52.102;5.242;2023-03-15T00:55:09;4.2;;;1.6;;
32451;SDS011;45528;52.102;5.242;2023-03-15T00:56:46;4.0;;;1.8;;
32451;SDS011;45528;52.102;5.242;2023-03-15T00:58:22;5.11;;;2.1;;
32451;SDS011;45528;52.102;5.242;2023-03-15T00:59:59;7.2;;;2.31;;
32451;SDS011;45528;52.102;5.242;2023-03-15T01:03:12;4.91;;;1.9;;
32451;SDS011;45528;52.102;5.242;2023-03-15T01:04:48;5.0;;;2.0;;
32451;SDS011;45528;52.102;5.242;2023-03-15T01:06:24;5.7;;;1.7;;
32451;SDS011;45528;52.102;5.242;2023-03-15T01:09:39;6.3;;;1.9;;
32451;SDS011;45528;52.102;5.242;2023-03-15T01:11:16;4.61;;;1.8;;
32451;SDS011;45528;52.102;5.242;2023-03-15T01:12:54;3.7;;;1.6;;
32451;SDS011;45528;52.102;5.242;2023-03-15T01:16:07;3.9;;;1.7;;
32451;SDS011;45528;52.102;5.242;2023-03-15T01:17:46;4.61;;;1.5;;
32451;SDS011;45528;52.102;5.242;2023-03-15T01:19:22;4.41;;;1.7;;
32451;SDS011;45528;52.102;5.242;2023-03-15T01:20:58;3.9;;;1.6;;
32451;SDS011;45528;52.102;5.242;2023-03-15T01:24:12;4.8;;;1.5;;
32451;SDS011;45528;52.102;5.242;2023-03-15T01:25:50;4.41;;;1.9;;
32451;SDS011;45528;52.102;5.242;2023-03-15T01:27:28;3.7;;;1.8;;
32451;SDS011;45528;52.102;5.242;2023-03-15T01:30:40;5.2;;;1.5;;
32451;SDS011;45528;52.102;5.242;2023-03-15T01:32:25;3.8;;;1.6;;
32451;SDS011;45528;52.102;5.242;2023-03-15T01:34:01;3.9;;;1.5;;
32451;SDS011;45528;52.102;5.242;2023-03-15T01:35:37;3.1;;;1.5;;
32451;SDS011;45528;52.102;5.242;2023-03-15T01:38:49;3.0;;;1.5;;
32451;SDS011;45528;52.102;5.242;2023-03-15T01:40:25;3.8;;;1.7;;
32451;SDS011;45528;52.102;5.242;2023-03-15T01:42:02;5.7;;;1.8;;
32451;SDS011;45528;52.102;5.242;2023-03-15T01:45:48;4.8;;;1.8;;
32451;SDS011;45528;52.102;5.242;2023-03-15T01:47:31;8.71;;;2.1;;
32451;SDS011;45528;52.102;5.242;2023-03-15T01:49:08;5.5;;;1.9;;
32451;SDS011;45528;52.102;5.242;2023-03-15T01:50:48;3.4;;;1.8;;
32451;SDS011;45528;52.102;5.242;2023-03-15T01:52:27;3.8;;;1.6;;
32451;SDS011;45528;52.102;5.242;2023-03-15T01:55:53;4.1;;;1.9;;
32451;SDS011;45528;52.102;5.242;2023-03-15T01:57:30;8.2;;;2.5;;
32451;SDS011;45528;52.102;5.242;2023-03-15T01:59:12;7.9;;;2.31;;
32451;SDS011;45528;52.102;5.242;2023-03-15T02:00:55;4.7;;;1.6;;
32451;SDS011;45528;52.102;5.242;2023-03-15T02:04:08;3.3;;;1.8;;
32451;SDS011;45528;52.102;5.242;2023-03-15T02:05:50;4.0;;;1.7;;
32451;SDS011;45528;52.102;5.242;2023-03-15T02:07:31;5.4;;;1.9;;
32451;SDS011;45528;52.102;5.242;2023-03-15T02:09:08;5.0;;;1.6;;
32451;SDS011;45528;52.102;5.242;2023-03-15T02:12:26;5.4;;;2.0;;
32451;SDS011;45528;52.102;5.242;2023-03-15T02:14:05;6.0;;;2.31;;
32451;SDS011;45528;52.102;5.242;2023-03-15T02:15:44;4.7;;;2.1;;
32451;SDS011;45528;52.102;5.242;2023-03-15T02:19:09;3.3;;;1.8;;
32451;SDS011;45528;52.102;5.242;2023-03-15T02:20:58;9.31;;;2.6;;
32451;SDS011;45528;52.102;5.242;2023-03-15T02:22:46;6.7;;;2.21;;
32451;SDS011;45528;52.102;5.242;2023-03-15T02:24:31;3.8;;;2.1;;
32451;SDS011;45528;52.102;5.242;2023-03-15T02:26:16;5.3;;;2.31;;
32451;SDS011;45528;52.102;5.242;2023-03-15T02:28:00;5.8;;;2.31;;
32451;SDS011;45528;52.102;5.242;2023-03-15T02:31:16;7.8;;;2.21;;
32451;SDS011;45528;52.102;5.242;2023-03-15T02:32:53;5.9;;;2.21;;
32451;SDS011;45528;52.102;5.242;2023-03-15T02:34:31;5.0;;;2.6;;
32451;SDS011;45528;52.102;5.242;2023-03-15T02:37:52;4.5;;;2.31;;
32451;SDS011;45528;52.102;5.242;2023-03-15T02:39:28;8.4;;;2.4;;
32451;SDS011;45528;52.102;5.242;2023-03-15T02:41:04;5.8;;;2.21;;
32451;SDS011;45528;52.102;5.242;2023-03-15T02:42:41;7.4;;;2.4;;
32451;SDS011;45528;52.102;5.242;2023-03-15T02:45:59;6.5;;;2.21;;
32451;SDS011;45528;52.102;5.242;2023-03-15T02:47:36;7.9;;;2.8;;
32451;SDS011;45528;52.102;5.242;2023-03-15T02:49:14;4.61;;;1.9;;
32451;SDS011;45528;52.102;5.242;2023-03-15T02:50:53;3.8;;;1.7;;
32451;SDS011;45528;52.102;5.242;2023-03-15T02:54:05;4.91;;;1.8;;
32451;SDS011;45528;52.102;5.242;2023-03-15T02:55:41;3.8;;;1.8;;
32451;SDS011;45528;52.102;5.242;2023-03-15T02:57:17;5.2;;;2.5;;
32451;SDS011;45528;52.102;5.242;2023-03-15T03:00:31;4.3;;;2.1;;
32451;SDS011;45528;52.102;5.242;2023-03-15T03:02:07;4.41;;;1.7;;
32451;SDS011;45528;52.102;5.242;2023-03-15T03:03:44;5.7;;;2.1;;
32451;SDS011;45528;52.102;5.242;2023-03-15T03:06:58;3.4;;;1.6;;
32451;SDS011;45528;52.102;5.242;2023-03-15T03:08:34;6.0;;;2.0;;
32451;SDS011;45528;52.102;5.242;2023-03-15T03:10:13;3.3;;;1.6;;
32451;SDS011;45528;52.102;5.242;2023-03-15T03:11:51;4.3;;;1.9;;
32451;SDS011;45528;52.102;5.242;2023-03-15T03:15:04;6.4;;;2.1;;
32451;SDS011;45528;52.102;5.242;2023-03-15T03:16:42;5.3;;;2.31;;
32451;SDS011;45528;52.102;5.242;2023-03-15T03:18:18;4.7;;;2.0;;
32451;SDS011;45528;52.102;5.242;2023-03-15T03:21:31;4.7;;;1.8;;
32451;SDS011;45528;52.102;5.242;2023-03-15T03:23:07;5.6;;;2.31;;
32451;SDS011;45528;52.102;5.242;2023-03-15T03:24:43;5.0;;;2.1;;
32451;SDS011;45528;52.102;5.242;2023-03-15T03:27:56;5.3;;;2.1;;
32451;SDS011;45528;52.102;5.242;2023-03-15T03:29:33;6.3;;;2.6;;
32451;SDS011;45528;52.102;5.242;2023-03-15T03:31:16;5.8;;;2.31;;
32451;SDS011;45528;52.102;5.242;2023-03-15T03:32:53;6.5;;;2.31;;
32451;SDS011;45528;52.102;5.242;2023-03-15T03:36:05;5.0;;;2.31;;
32451;SDS011;45528;52.102;5.242;2023-03-15T03:37:42;5.5;;;2.7;;
32451;SDS011;45528;52.102;5.242;2023-03-15T03:39:18;6.2;;;2.4;;
32451;SDS011;45528;52.102;5.242;2023-03-15T03:42:31;7.2;;;1.7;;
32451;SDS011;45528;52.102;5.242;2023-03-15T03:44:07;8.2;;;2.31;;
32451;SDS011;45528;52.102;5.242;2023-03-15T03:45:43;4.7;;;2.0;;
32451;SDS011;45528;52.102;5.242;2023-03-15T03:48:55;4.8;;;2.21;;
32451;SDS011;45528;52.102;5.242;2023-03-15T03:50:31;4.2;;;2.0;;
32451;SDS011;45528;52.102;5.242;2023-03-15T03:52:08;6.6;;;2.1;;
32451;SDS011;45528;52.102;5.242;2023-03-15T03:53:44;5.2;;;2.1;;
32451;SDS011;45528;52.102;5.242;2023-03-15T03:56:56;5.4;;;2.1;;
32451;SDS011;45528;52.102;5.242;2023-03-15T03:58:32;10.1;;;2.6;;
32451;SDS011;45528;52.102;5.242;2023-03-15T04:00:09;5.2;;;2.1;;
32451;SDS011;45528;52.102;5.242;2023-03-15T04:03:24;3.6;;;2.0;;
32451;SDS011;45528;52.102;5.242;2023-03-15T04:05:01;5.8;;;2.4;;
32451;SDS011;45528;52.102;5.242;2023-03-15T04:06:36;8.31;;;2.21;;
32451;SDS011;45528;52.102;5.242;2023-03-15T04:09:50;7.5;;;2.31;;
32451;SDS011;45528;52.102;5.242;2023-03-15T04:11:26;7.3;;;2.4;;
32451;SDS011;45528;52.102;5.242;2023-03-15T04:13:02;6.1;;;2.6;;
32451;SDS011;45528;52.102;5.242;2023-03-15T04:14:38;5.5;;;2.4;;
32451;SDS011;45528;52.102;5.242;2023-03-15T04:17:50;5.0;;;2.6;;
32451;SDS011;45528;52.102;5.242;2023-03-15T04:19:27;3.8;;;2.31;;
32451;SDS011;45528;52.102;5.242;2023-03-15T04:21:04;7.0;;;2.7;;
32451;SDS011;45528;52.102;5.242;2023-03-15T04:24:17;4.61;;;2.21;;
32451;SDS011;45528;52.102;5.242;2023-03-15T04:25:53;4.3;;;2.5;;
32451;SDS011;45528;52.102;5.242;2023-03-15T04:27:29;9.0;;;2.7;;
32451;SDS011;45528;52.102;5.242;2023-03-15T04:30:46;5.9;;;2.4;;
32451;SDS011;45528;52.102;5.242;2023-03-15T04:32:23;3.4;;;2.1;;
32451;SDS011;45528;52.102;5.242;2023-03-15T04:33:59;5.11;;;2.31;;
32451;SDS011;45528;52.102;5.242;2023-03-15T04:35:36;7.0;;;2.5;;
32451;SDS011;45528;52.102;5.242;2023-03-15T04:38:49;6.2;;;2.7;;
32451;SDS011;45528;52.102;5.242;2023-03-15T04:40:25;6.2;;;3.0;;
32451;SDS011;45528;52.102;5.242;2023-03-15T04:42:02;5.5;;;2.4;;
32451;SDS011;45528;52.102;5.242;2023-03-15T04:45:16;8.4;;;2.8;;
32451;SDS011;45528;52.102;5.242;2023-03-15T04:46:54;7.7;;;3.1;;
32451;SDS011;45528;52.102;5.242;2023-03-15T04:48:31;7.3;;;3.5;;
32451;SDS011;45528;52.102;5.242;2023-03-15T04:51:44;6.5;;;3.5;;
32451;SDS011;45528;52.102;5.242;2023-03-15T04:53:20;7.7;;;3.9;;
32451;SDS011;45528;52.102;5.242;2023-03-15T04:54:56;7.5;;;3.8;;
32451;SDS011;45528;52.102;5.242;2023-03-15T04:56:32;7.6;;;3.2;;
32451;SDS011;45528;52.102;5.242;2023-03-15T04:59:44;6.8;;;3.3;;
32451;SDS011;45528;52.102;5.242;2023-03-15T05:01:21;8.5;;;4.0;;
32451;SDS011;45528;52.102;5.242;2023-03-15T05:03:03;8.5;;;4.0;;
32451;SDS011;45528;52.102;5.242;2023-03-15T05:06:15;7.5;;;3.5;;
32451;SDS011;45528;52.102;5.242;2023-03-15T05:07:52;9.0;;;3.6;;
32451;SDS011;45528;52.102;5.242;2023-03-15T05:09:28;6.1;;;3.6;;
32451;SDS011;45528;52.102;5.242;2023-03-15T05:11:04;9.21;;;3.5;;
32451;SDS011;45528;52.102;5.242;2023-03-15T05:14:17;6.1;;;3.8;;
32451;SDS011;45528;52.102;5.242;2023-03-15T05:15:53;6.2;;;3.6;;
32451;SDS011;45528;52.102;5.242;2023-03-15T05:17:29;9.6;;;4.0;;
32451;SDS011;45528;52.102;5.242;2023-03-15T05:20:41;6.1;;;3.9;;
32451;SDS011;45528;52.102;5.242;2023-03-15T05:22:17;8.71;;;4.1;;
32451;SDS011;45528;52.102;5.242;2023-03-15T05:23:53;8.71;;;4.1;;
32451;SDS011;45528;52.102;5.242;2023-03-15T05:27:06;8.4;;;3.8;;
32451;SDS011;45528;52.102;5.242;2023-03-15T05:28:42;8.31;;;4.0;;
32451;SDS011;45528;52.102;5.242;2023-03-15T05:30:18;7.9;;;4.0;;
32451;SDS011;45528;52.102;5.242;2023-03-15T05:33:30;7.8;;;3.8;;
32451;SDS011;45528;52.102;5.242;2023-03-15T05:35:07;6.8;;;3.5;;
32451;SDS011;45528;52.102;5.242;2023-03-15T05:36:43;7.7;;;3.9;;
32451;SDS011;45528;52.102;5.242;2023-03-15T05:38:20;8.9;;;4.5;;
32451;SDS011;45528;52.102;5.242;2023-03-15T05:41:32;9.4;;;4.8;;
32451;SDS011;45528;52.102;5.242;2023-03-15T05:43:08;7.8;;;4.3;;
32451;SDS011;45528;52.102;5.242;2023-03-15T05:44:45;10.9;;;5.2;;
32451;SDS011;45528;52.102;5.242;2023-03-15T05:47:58;11.0;;;4.41;;
32451;SDS011;45528;52.102;5.242;2023-03-15T05:49:34;7.7;;;4.1;;
32451;SDS011;45528;52.102;5.242;2023-03-15T05:51:11;8.31;;;3.8;;
32451;SDS011;45528;52.102;5.242;2023-03-15T05:54:25;7.7;;;3.6;;
32451;SDS011;45528;52.102;5.242;2023-03-15T05:56:01;9.21;;;3.6;;
32451;SDS011;45528;52.102;5.242;2023-03-15T05:57:37;7.8;;;3.6;;
32451;SDS011;45528;52.102;5.242;2023-03-15T05:59:13;7.3;;;3.0;;
32451;SDS011;45528;52.102;5.242;2023-03-15T06:02:25;8.5;;;3.1;;
32451;SDS011;45528;52.102;5.242;2023-03-15T06:04:01;8.4;;;2.7;;
32451;SDS011;45528;52.102;5.242;2023-03-15T06:05:38;11.2;;;3.1;;
32451;SDS011;45528;52.102;5.242;2023-03-15T06:08:50;8.31;;;3.0;;
32451;SDS011;45528;52.102;5.242;2023-03-15T06:10:26;5.7;;;2.8;;
32451;SDS011;45528;52.102;5.242;2023-03-15T06:12:02;6.4;;;2.9;;
32451;SDS011;45528;52.102;5.242;2023-03-15T06:15:15;9.9;;;3.2;;
32451;SDS011;45528;52.102;5.242;2023-03-15T06:16:52;8.9;;;3.2;;
32451;SDS011;45528;52.102;5.242;2023-03-15T06:18:29;9.0;;;2.8;;
32451;SDS011;45528;52.102;5.242;2023-03-15T06:21:43;6.4;;;2.8;;
32451;SDS011;45528;52.102;5.242;2023-03-15T06:23:19;9.1;;;2.9;;
32451;SDS011;45528;52.102;5.242;2023-03-15T06:24:55;8.71;;;3.1;;
32451;SDS011;45528;52.102;5.242;2023-03-15T06:26:31;10.0;;;2.9;;
32451;SDS011;45528;52.102;5.242;2023-03-15T06:29:43;7.8;;;2.7;;
32451;SDS011;45528;52.102;5.242;2023-03-15T06:31:19;9.31;;;3.3;;
32451;SDS011;45528;52.102;5.242;2023-03-15T06:32:55;13.9;;;3.0;;
32451;SDS011;45528;52.102;5.242;2023-03-15T06:36:08;8.9;;;2.9;;
32451;SDS011;45528;52.102;5.242;2023-03-15T06:37:45;11.1;;;3.2;;
32451;SDS011;45528;52.102;5.242;2023-03-15T06:39:22;11.4;;;2.8;;
32451;SDS011;45528;52.102;5.242;2023-03-15T06:42:36;12.9;;;3.4;;
32451;SDS011;45528;52.102;5.242;2023-03-15T06:44:12;10.6;;;3.3;;
32451;SDS011;45528;52.102;5.242;2023-03-15T06:45:48;15.2;;;3.4;;
32451;SDS011;45528;52.102;5.242;2023-03-15T06:47:26;11.3;;;3.3;;
32451;SDS011;45528;52.102;5.242;2023-03-15T06:50:38;12.4;;;2.7;;
32451;SDS011;45528;52.102;5.242;2023-03-15T06:52:15;12.8;;;3.1;;
32451;SDS011;45528;52.102;5.242;2023-03-15T06:53:52;10.1;;;3.0;;
32451;SDS011;45528;52.102;5.242;2023-03-15T06:57:05;12.2;;;3.2;;
32451;SDS011;45528;52.102;5.242;2023-03-15T06:58:41;11.0;;;3.3;;
32451;SDS011;45528;52.102;5.242;2023-03-15T07:00:18;9.5;;;3.1;;
32451;SDS011;45528;52.102;5.242;2023-03-15T07:03:31;10.0;;;2.9;;
32451;SDS011;45528;52.102;5.242;2023-03-15T07:05:07;11.1;;;2.8;;
32451;SDS011;45528;52.102;5.242;2023-03-15T07:06:44;16.7;;;3.8;;
32451;SDS011;45528;52.102;5.242;2023-03-15T07:08:20;20.7;;;5.4;;
32451;SDS011;45528;52.102;5.242;2023-03-15T07:11:35;11.6;;;3.4;;
32451;SDS011;45528;52.102;5.242;2023-03-15T07:13:12;11.7;;;2.4;;
32451;SDS011;45528;52.102;5.242;2023-03-15T07:14:48;9.4;;;2.4;;
32451;SDS011;45528;52.102;5.242;2023-03-15T07:18:00;8.81;;;1.9;;
32451;SDS011;45528;52.102;5.242;2023-03-15T07:19:36;7.5;;;2.1;;
32451;SDS011;45528;52.102;5.242;2023-03-15T07:21:12;10.4;;;2.1;;
32451;SDS011;45528;52.102;5.242;2023-03-15T07:24:25;11.4;;;2.4;;
32451;SDS011;45528;52.102;5.242;2023-03-15T07:26:01;8.9;;;2.0;;
32451;SDS011;45528;52.102;5.242;2023-03-15T07:27:38;7.8;;;2.0;;
32451;SDS011;45528;52.102;5.242;2023-03-15T07:29:14;9.0;;;2.5;;
32451;SDS011;45528;52.102;5.242;2023-03-15T07:32:28;10.1;;;2.31;;
32451;SDS011;45528;52.102;5.242;2023-03-15T07:34:04;13.9;;;2.7;;
32451;SDS011;45528;52.102;5.242;2023-03-15T07:35:40;9.6;;;3.2;;
32451;SDS011;45528;52.102;5.242;2023-03-15T07:38:52;9.71;;;2.8;;
32451;SDS011;45528;52.102;5.242;2023-03-15T07:40:28;13.4;;;3.1;;
32451;SDS011;45528;52.102;5.242;2023-03-15T07:42:04;11.8;;;3.2;;
32451;SDS011;45528;52.102;5.242;2023-03-15T07:45:16;8.9;;;3.3;;
32451;SDS011;45528;52.102;5.242;2023-03-15T07:46:52;8.6;;;3.4;;
32451;SDS011;45528;52.102;5.242;2023-03-15T07:48:29;10.6;;;3.0;;
32451;SDS011;45528;52.102;5.242;2023-03-15T07:50:06;12.1;;;3.7;;
32451;SDS011;45528;52.102;5.242;2023-03-15T07:53:19;11.1;;;3.9;;
32451;SDS011;45528;52.102;5.242;2023-03-15T07:54:55;10.8;;;3.8;;
32451;SDS011;45528;52.102;5.242;2023-03-15T07:56:32;8.2;;;3.1;;
32451;SDS011;45528;52.102;5.242;2023-03-15T07:59:44;10.3;;;3.1;;
32451;SDS011;45528;52.102;5.242;2023-03-15T08:01:20;9.21;;;2.6;;
32451;SDS011;45528;52.102;5.242;2023-03-15T08:02:56;7.1;;;2.1;;
32451;SDS011;45528;52.102;5.242;2023-03-15T08:06:09;9.21;;;2.5;;
32451;SDS011;45528;52.102;5.242;2023-03-15T08:07:46;9.71;;;2.6;;
32451;SDS011;45528;52.102;5.242;2023-03-15T08:09:23;11.9;;;2.9;;
32451;SDS011;45528;52.102;5.242;2023-03-15T08:12:35;11.0;;;2.9;;
32451;SDS011;45528;52.102;5.242;2023-03-15T08:14:11;8.31;;;2.21;;
32451;SDS011;45528;52.102;5.242;2023-03-15T08:15:47;7.6;;;2.8;;
32451;SDS011;45528;52.102;5.242;2023-03-15T08:17:23;9.5;;;2.5;;
32451;SDS011;45528;52.102;5.242;2023-03-15T08:20:36;7.0;;;2.21;;
32451;SDS011;45528;52.102;5.242;2023-03-15T08:22:12;9.81;;;2.4;;
32451;SDS011;45528;52.102;5.242;2023-03-15T08:23:48;4.91;;;2.0;;
32451;SDS011;45528;52.102;5.242;2023-03-15T08:27:01;10.5;;;2.5;;
32451;SDS011;45528;52.102;5.242;2023-03-15T08:28:38;6.8;;;2.21;;
32451;SDS011;45528;52.102;5.242;2023-03-15T08:30:15;5.6;;;1.8;;
32451;SDS011;45528;52.102;5.242;2023-03-15T08:33:28;8.71;;;2.5;;
32451;SDS011;45528;52.102;5.242;2023-03-15T08:35:05;7.5;;;2.0;;
32451;SDS011;45528;52.102;5.242;2023-03-15T08:36:45;7.4;;;1.9;;
32451;SDS011;45528;52.102;5.242;2023-03-15T08:38:21;7.9;;;1.9;;
32451;SDS011;45528;52.102;5.242;2023-03-15T08:41:33;7.9;;;1.9;;
32451;SDS011;45528;52.102;5.242;2023-03-15T08:43:09;9.0;;;2.31;;
32451;SDS011;45528;52.102;5.242;2023-03-15T08:44:45;8.5;;;1.8;;
32451;SDS011;45528;52.102;5.242;2023-03-15T08:47:58;6.0;;;1.5;;
32451;SDS011;45528;52.102;5.242;2023-03-15T08:49:35;6.0;;;1.5;;
32451;SDS011;45528;52.102;5.242;2023-03-15T08:51:11;6.7;;;2.0;;
32451;SDS011;45528;52.102;5.242;2023-03-15T08:54:23;6.1;;;1.9;;
32451;SDS011;45528;52.102;5.242;2023-03-15T08:55:59;6.9;;;1.5;;
32451;SDS011;45528;52.102;5.242;2023-03-15T08:57:36;7.6;;;1.5;;
32451;SDS011;45528;52.102;5.242;2023-03-15T08:59:13;6.8;;;1.4;;
32451;SDS011;45528;52.102;5.242;2023-03-15T09:02:26;6.4;;;1.3;;
32451;SDS011;45528;52.102;5.242;2023-03-15T09:04:03;8.4;;;1.3;;
32451;SDS011;45528;52.102;5.242;2023-03-15T09:05:39;6.9;;;1.5;;
32451;SDS011;45528;52.102;5.242;2023-03-15T09:08:51;6.9;;;1.4;;
32451;SDS011;45528;52.102;5.242;2023-03-15T09:10:27;6.0;;;1.5;;
32451;SDS011;45528;52.102;5.242;2023-03-15T09:12:04;8.31;;;1.5;;
32451;SDS011;45528;52.102;5.242;2023-03-15T09:15:16;5.2;;;1.5;;
32451;SDS011;45528;52.102;5.242;2023-03-15T09:16:52;9.21;;;1.3;;
32451;SDS011;45528;52.102;5.242;2023-03-15T09:18:29;7.1;;;1.4;;
32451;SDS011;45528;52.102;5.242;2023-03-15T09:20:06;8.6;;;1.3;;
32451;SDS011;45528;52.102;5.242;2023-03-15T09:23:20;5.5;;;1.2;;
32451;SDS011;45528;52.102;5.242;2023-03-15T09:24:56;7.7;;;1.4;;
32451;SDS011;45528;52.102;5.242;2023-03-15T09:26:32;8.5;;;1.3;;
32451;SDS011;45528;52.102;5.242;2023-03-15T09:29:46;7.5;;;1.2;;
32451;SDS011;45528;52.102;5.242;2023-03-15T09:31:22;7.3;;;1.4;;
32451;SDS011;45528;52.102;5.242;2023-03-15T09:32:58;8.2;;;1.0;;
32451;SDS011;45528;52.102;5.242;2023-03-15T09:36:11;5.7;;;1.4;;
32451;SDS011;45528;52.102;5.242;2023-03-15T09:37:48;8.9;;;1.3;;
32451;SDS011;45528;52.102;5.242;2023-03-15T09:39:24;6.6;;;1.2;;
32451;SDS011;45528;52.102;5.242;2023-03-15T09:41:01;6.5;;;1.3;;
32451;SDS011;45528;52.102;5.242;2023-03-15T09:44:33;6.4;;;1.3;;
32451;SDS011;45528;52.102;5.242;2023-03-15T09:46:22;5.9;;;1.2;;
32451;SDS011;45528;52.102;5.242;2023-03-15T09:48:04;5.9;;;1.2;;
32451;SDS011;45528;52.102;5.242;2023-03-15T09:49:46;10.7;;;1.6;;
32451;SDS011;45528;52.102;5.242;2023-03-15T09:53:13;7.7;;;1.4;;
32451;SDS011;45528;52.102;5.242;2023-03-15T09:54:56;6.0;;;1.6;;
32451;SDS011;45528;52.102;5.242;2023-03-15T09:56:35;6.5;;;1.5;;
32451;SDS011;45528;52.102;5.242;2023-03-15T09:58:16;6.3;;;1.5;;
32451;SDS011;45528;52.102;5.242;2023-03-15T09:59:56;6.4;;;1.5;;
32451;SDS011;45528;52.102;5.242;2023-03-15T10:03:15;9.31;;;1.3;;
32451;SDS011;45528;52.102;5.242;2023-03-15T10:04:58;6.6;;;1.5;;
32451;SDS011;45528;52.102;5.242;2023-03-15T10:06:41;8.5;;;1.4;;
32451;SDS011;45528;52.102;5.242;2023-03-15T10:08:24;5.9;;;1.2;;
32451;SDS011;45528;52.102;5.242;2023-03-15T10:11:41;6.3;;;1.7;;
32451;SDS011;45528;52.102;5.242;2023-03-15T10:13:30;9.6;;;1.9;;
32451;SDS011;45528;52.102;5.242;2023-03-15T10:15:27;5.0;;;1.4;;
32451;SDS011;45528;52.102;5.242;2023-03-15T10:17:14;6.6;;;1.4;;
32451;SDS011;45528;52.102;5.242;2023-03-15T10:18:59;6.9;;;1.4;;
32451;SDS011;45528;52.102;5.242;2023-03-15T10:22:27;4.7;;;1.4;;
32451;SDS011;45528;52.102;5.242;2023-03-15T10:24:12;7.2;;;1.4;;
32451;SDS011;45528;52.102;5.242;2023-03-15T10:25:53;5.8;;;1.4;;
32451;SDS011;45528;52.102;5.242;2023-03-15T10:27:31;7.7;;;1.4;;
32451;SDS011;45528;52.102;5.242;2023-03-15T10:29:13;10.7;;;1.5;;
32451;SDS011;45528;52.102;5.242;2023-03-15T10:32:36;5.8;;;1.5;;
32451;SDS011;45528;52.102;5.242;2023-03-15T10:34:16;6.9;;;1.5;;
32451;SDS011;45528;52.102;5.242;2023-03-15T10:35:53;6.3;;;1.2;;
32451;SDS011;45528;52.102;5.242;2023-03-15T10:37:30;8.31;;;1.5;;
32451;SDS011;45528;52.102;5.242;2023-03-15T10:40:45;8.31;;;1.8;;
32451;SDS011;45528;52.102;5.242;2023-03-15T10:42:28;6.5;;;1.5;;
32451;SDS011;45528;52.102;5.242;2023-03-15T10:44:08;8.0;;;1.3;;
32451;SDS011;45528;52.102;5.242;2023-03-15T10:47:39;6.1;;;1.2;;
32451;SDS011;45528;52.102;5.242;2023-03-15T10:49:17;4.41;;;1.0;;
32451;SDS011;45528;52.102;5.242;2023-03-15T10:50:53;9.1;;;1.6;;
32451;SDS011;45528;52.102;5.242;2023-03-15T10:52:32;10.21;;;1.3;;
32451;SDS011;45528;52.102;5.242;2023-03-15T10:55:56;11.5;;;1.4;;
32451;SDS011;45528;52.102;5.242;2023-03-15T10:57:36;7.9;;;1.4;;
32451;SDS011;45528;52.102;5.242;2023-03-15T10:59:16;6.1;;;1.2;;
32451;SDS011;45528;52.102;5.242;2023-03-15T11:00:58;8.2;;;1.3;;
32451;SDS011;45528;52.102;5.242;2023-03-15T11:02:37;6.9;;;1.3;;
32451;SDS011;45528;52.102;5.242;2023-03-15T11:06:02;8.1;;;1.2;;
32451;SDS011;45528;52.102;5.242;2023-03-15T11:07:55;7.2;;;1.2;;
32451;SDS011;45528;52.102;5.242;2023-03-15T11:09:37;9.4;;;1.3;;
32451;SDS011;45528;52.102;5.242;2023-03-15T11:11:15;7.6;;;1.3;;
32451;SDS011;45528;52.102;5.242;2023-03-15T11:14:46;5.0;;;0.9;;
32451;SDS011;45528;52.102;5.242;2023-03-15T11:16:32;5.4;;;1.11;;
32451;SDS011;45528;52.102;5.242;2023-03-15T11:18:15;5.11;;;1.4;;
32451;SDS011;45528;52.102;5.242;2023-03-15T11:19:54;7.5;;;1.2;;
32451;SDS011;45528;52.102;5.242;2023-03-15T11:21:33;6.5;;;1.11;;
32451;SDS011;45528;52.102;5.242;2023-03-15T11:24:52;6.8;;;1.4;;
32451;SDS011;45528;52.102;5.242;2023-03-15T11:26:30;5.7;;;1.2;;
32451;SDS011;45528;52.102;5.242;2023-03-15T11:28:14;3.0;;;0.9;;
32451;SDS011;45528;52.102;5.242;2023-03-15T11:29:55;7.2;;;1.3;;
32451;SDS011;45528;52.102;5.242;2023-03-15T11:33:13;5.0;;;1.2;;
32451;SDS011;45528;52.102;5.242;2023-03-15T11:35:05;6.8;;;1.11;;
32451;SDS011;45528;52.102;5.242;2023-03-15T11:36:47;5.3;;;0.9;;
32451;SDS011;45528;52.102;5.242;2023-03-15T11:38:30;3.7;;;0.9;;
32451;SDS011;45528;52.102;5.242;2023-03-15T11:41:53;6.4;;;0.9;;
32451;SDS011;45528;52.102;5.242;2023-03-15T11:43:39;3.3;;;0.9;;
32451;SDS011;45528;52.102;5.242;2023-03-15T11:45:27;5.4;;;1.0;;
32451;SDS011;45528;52.102;5.242;2023-03-15T11:47:12;5.9;;;1.11;;
32451;SDS011;45528;52.102;5.242;2023-03-15T11:49:00;4.3;;;0.8;;
32451;SDS011;45528;52.102;5.242;2023-03-15T11:54:25;5.9;;;0.9;;
32451;SDS011;45528;52.102;5.242;2023-03-15T11:56:18;5.9;;;1.2;;
32451;SDS011;45528;52.102;5.242;2023-03-15T11:57:56;4.3;;;0.9;;
32451;SDS011;45528;52.102;5.242;2023-03-15T12:02:41;4.41;;;0.9;;
32451;SDS011;45528;52.102;5.242;2023-03-15T12:04:27;6.8;;;1.0;;
32451;SDS011;45528;52.102;5.242;2023-03-15T12:06:36;5.7;;;1.11;;
32451;SDS011;45528;52.102;5.242;2023-03-15T12:08:15;8.6;;;1.0;;
32451;SDS011;45528;52.102;5.242;2023-03-15T12:09:55;3.8;;;1.0;;
32451;SDS011;45528;52.102;5.242;2023-03-15T12:11:55;6.9;;;1.2;;
32451;SDS011;45528;52.102;5.242;2023-03-15T12:15:42;7.5;;;1.11;;
32451;SDS011;45528;52.102;5.242;2023-03-15T12:17:49;3.3;;;0.7;;
32451;SDS011;45528;52.102;5.242;2023-03-15T12:19:29;5.9;;;1.0;;
32451;SDS011;45528;52.102;5.242;2023-03-15T12:21:10;6.7;;;1.0;;
32451;SDS011;45528;52.102;5.242;2023-03-15T12:22:52;4.8;;;1.0;;
32451;SDS011;45528;52.102;5.242;2023-03-15T12:24:42;5.5;;;1.0;;
32451;SDS011;45528;52.102;5.242;2023-03-15T12:26:22;6.0;;;1.2;;
32451;SDS011;45528;52.102;5.242;2023-03-15T12:29:57;5.6;;;1.0;;
32451;SDS011;45528;52.102;5.242;2023-03-15T12:32:10;5.11;;;1.0;;
32451;SDS011;45528;52.102;5.242;2023-03-15T12:33:50;5.6;;;1.0;;
32451;SDS011;45528;52.102;5.242;2023-03-15T12:35:29;3.5;;;1.11;;
32451;SDS011;45528;52.102;5.242;2023-03-15T12:37:13;5.0;;;1.11;;
32451;SDS011;45528;52.102;5.242;2023-03-15T12:38:57;5.5;;;1.11;;
32451;SDS011;45528;52.102;5.242;2023-03-15T12:42:59;5.11;;;0.8;;
32451;SDS011;45528;52.102;5.242;2023-03-15T12:44:37;5.0;;;1.0;;
32451;SDS011;45528;52.102;5.242;2023-03-15T12:47:20;8.2;;;1.11;;
32451;SDS011;45528;52.102;5.242;2023-03-15T12:49:04;4.41;;;0.9;;
32451;SDS011;45528;52.102;5.242;2023-03-15T12:50:48;7.3;;;1.0;;
32451;SDS011;45528;52.102;5.242;2023-03-15T12:52:35;5.7;;;1.11;;
32451;SDS011;45528;52.102;5.242;2023-03-15T12:54:16;3.7;;;0.9;;
32451;SDS011;45528;52.102;5.242;2023-03-15T12:55:55;5.11;;;1.2;;
32451;SDS011;45528;52.102;5.242;2023-03-15T12:59:18;4.2;;;1.0;;